Flight Track Log - Related Links

Times and Time Zones

All times are in EDT time to prevent confusion due to time zone crossing. See the SWA3943 flight status page for this flight to view local times or setup timezone preferences in your user account.

Time Position Orientation Groundspeed Altitude Reporting Facility
EDT Latitude Longitude Course Direction KTS MPH feet Rate Location/Type
Fri 09:59:53 AM 39.8833 -75.2167 89° East 135 155 800  Level Philadelphia TRACON
Fri 10:00:22 AM 39.8836 -75.1958 89° East 168 193 1,600 1,217 Climbing FAA TRACON SMA TRACON (SMA)
Fri 10:01:02 AM 39.9003 -75.1581 60° Northeast 218 251 2,200 1,400 Climbing FAA TRACON SMA TRACON (SMA)
Fri 10:01:22 AM 39.9239 -75.1461 21° North 242 278 3,000 2,400 Climbing FAA TRACON SMA TRACON (SMA)
Fri 10:01:42 AM 39.9458 -75.1450 North 259 298 3,800 3,000 Climbing FAA TRACON SMA TRACON (SMA)
Fri 10:02:02 AM 39.9708 -75.1431 North 267 307 5,000 3,600 Climbing FAA TRACON SMA TRACON (SMA)
Fri 10:02:22 AM 39.9964 -75.1472 353° North 259 298 6,200 3,300 Climbing FAA TRACON SMA TRACON (SMA)
Fri 10:02:42 AM 40.0125 -75.1625 324° Northwest 227 261 7,200 2,850 Climbing FAA TRACON SMA TRACON (SMA)
Fri 10:03:02 AM 40.0242 -75.1842 305° West 244 281 8,100 2,550 Climbing FAA TRACON SMA TRACON (SMA)
Fri 10:03:22 AM 40.0394 -75.2131 305° West 265 305 8,900 2,250 Climbing FAA TRACON SMA TRACON (SMA)
Fri 10:03:42 AM 40.0522 -75.2372 305° West 266 306 9,600 1,800 Climbing FAA TRACON SMA TRACON (SMA)
Fri 10:04:02 AM 40.0664 -75.2644 304° West 295 339 10,100 1,350 Climbing FAA TRACON SMA TRACON (SMA)
Fri 10:04:22 AM 40.0853 -75.3017 304° West 325 374 10,500 1,950 Climbing FAA TRACON SMA TRACON (SMA)
Fri 10:04:42 AM 40.1014 -75.3317 305° West 331 381 11,400 2,400 Climbing FAA TRACON SMA TRACON (SMA)
Fri 10:05:02 AM 40.1186 -75.3633 305° West 348 400 12,100 2,250 Climbing FAA TRACON SMA TRACON (SMA)
Fri 10:05:22 AM 40.1408 -75.4058 304° West 370 426 12,900 1,350 Climbing FAA TRACON SMA TRACON (SMA)
Fri 10:05:42 AM 40.1589 -75.4400 305° West 376 433 13,000 300 Climbing FAA TRACON SMA TRACON (SMA)
Fri 10:06:02 AM 40.1772 -75.4725 306° West 374 430 13,100 150 Climbing FAA TRACON SMA TRACON (SMA)
Fri 10:06:22 AM 40.1997 -75.5169 304° West 368 423 13,100 300 Level FAA TRACON SMA TRACON (SMA)
Fri 10:06:42 AM 40.2164 -75.5503 303° West 362 417 13,300 1,650 Climbing FAA TRACON SMA TRACON (SMA)
Fri 10:07:02 AM 40.2353 -75.5825 308° West 361 415 14,200 2,850 Climbing FAA TRACON SMA TRACON (SMA)
Fri 10:07:22 AM 40.2608 -75.6214 311° West 374 430 15,200 2,550 Climbing FAA TRACON SMA TRACON (SMA)
Fri 10:07:42 AM 40.2808 -75.6517 311° West 381 438 15,900 2,400 Climbing FAA TRACON SMA TRACON (SMA)
Fri 10:08:02 AM 40.3042 -75.6867 311° West 388 447 16,800 1,800 Climbing FAA TRACON SMA TRACON (SMA)
Fri 10:08:22 AM 40.3322 -75.7283 311° West 393 452 17,100 293 Climbing FAA TRACON SMA TRACON (SMA)
Fri 10:08:43 AM 40.3550 -75.7614 312° West 395 455 17,000 -146 Descending FAA TRACON SMA TRACON (SMA)
Fri 10:09:03 AM 40.3708 -75.7856 311° West 395 455 17,000 171 Level FAA TRACON SMA TRACON (SMA)
Fri 10:09:18 AM 40.3914 -75.8125 315° West 389 448 17,100 486 Climbing New York Center
Fri 10:10:17 AM 40.4481 -75.9447 299° West 389 448 17,600 1,462 Climbing New York Center
Fri 10:11:17 AM 40.4639 -76.0578 280° West 360 414 20,000 2,182 Climbing New York Center
Fri 10:12:18 AM 40.4847 -76.1958 281° West 375 432 22,000 2,231 Climbing New York Center
Fri 10:13:18 AM 40.5072 -76.3394 282° West 389 448 24,500 2,288 Climbing New York Center
Fri 10:14:16 AM 40.5272 -76.4886 280° West 403 464 26,500 1,881 Climbing New York Center
Fri 10:15:16 AM 40.5514 -76.6356 282° West 414 476 28,200 1,800 Climbing New York Center
Fri 10:16:16 AM 40.5731 -76.7875 281° West 414 476 30,100 1,884 Climbing New York Center
Fri 10:17:17 AM 40.5942 -76.9397 280° West 419 482 32,000 1,918 Climbing New York Center
Fri 10:18:18 AM 40.6156 -77.0894 281° West 419 482 34,000 2,000 Climbing New York Center
Fri 10:19:17 AM 40.6350 -77.2333 280° West 413 475 36,000 1,008 Climbing New York Center
Fri 10:20:17 AM 40.6597 -77.3892 282° West 401 461 36,000 149 Level New York Center
Fri 10:21:18 AM 40.6789 -77.5278 280° West 396 456 36,300 580 Climbing New York Center
Fri 10:23:44 AM 40.7228 -77.8625 280° West 392 451 38,000 495 Climbing Cleveland Center
Fri 10:24:44 AM 40.7428 -78.0042 281° West 392 451 38,000  Level Cleveland Center
Fri 10:25:44 AM 40.7603 -78.1406 280° West 392 451 38,000  Level Cleveland Center
Fri 10:26:44 AM 40.7778 -78.2825 279° West 392 451 38,000  Level Cleveland Center
Fri 10:27:44 AM 40.7972 -78.4244 280° West 392 451 38,000  Level Cleveland Center
Fri 10:28:44 AM 40.8167 -78.5694 280° West 392 451 38,000  Level Cleveland Center
Fri 10:29:44 AM 40.8336 -78.7114 279° West 392 451 38,000  Level Cleveland Center
Fri 10:30:44 AM 40.8547 -78.8536 281° West 392 451 38,000  Level Cleveland Center
Fri 10:31:44 AM 40.8733 -78.9958 280° West 392 451 38,000  Level Cleveland Center
Fri 10:32:44 AM 40.8897 -79.1411 279° West 392 451 38,000  Level Cleveland Center
Fri 10:33:45 AM 40.9083 -79.2836 280° West 392 451 38,000  Level Cleveland Center
Fri 10:34:44 AM 40.9264 -79.4317 279° West 398 458 38,000  Level Cleveland Center
Fri 10:35:44 AM 40.9425 -79.5744 279° West 403 464 38,000  Level Cleveland Center
Fri 10:36:45 AM 40.9603 -79.7169 279° West 403 464 38,000  Level Cleveland Center
Fri 10:37:45 AM 40.9758 -79.8597 278° West 403 464 38,000  Level Cleveland Center
Fri 10:38:44 AM 40.9956 -80.0053 280° West 408 470 38,000  Level Cleveland Center
Fri 10:39:45 AM 41.0106 -80.1511 278° West 408 470 38,000  Level Cleveland Center
Fri 10:40:45 AM 41.0278 -80.2942 279° West 408 470 38,000  Level Cleveland Center
Fri 10:41:44 AM 41.0428 -80.4372 278° West 408 470 38,000  Level Cleveland Center
Fri 10:42:45 AM 41.0594 -80.5803 279° West 408 470 38,000  Level Cleveland Center
Fri 10:43:45 AM 41.0739 -80.7236 278° West 403 464 38,000  Level Cleveland Center
Fri 10:44:44 AM 41.0903 -80.8642 279° West 403 464 38,000  Level Cleveland Center
Fri 10:45:45 AM 41.1044 -81.0075 278° West 403 464 38,000  Level Cleveland Center
Fri 10:46:45 AM 41.1206 -81.1703 278° West 403 464 38,000  Level Cleveland Center
Fri 10:47:44 AM 41.1322 -81.2972 277° West 402 463 38,000  Level Cleveland Center
Fri 10:48:44 AM 41.1500 -81.4408 279° West 402 463 38,000  Level Cleveland Center
Fri 10:49:45 AM 41.1656 -81.5872 278° West 402 463 38,000  Level Cleveland Center
Fri 10:50:44 AM 41.1786 -81.7336 277° West 407 468 38,000  Level Cleveland Center
Fri 10:51:44 AM 41.1939 -81.8828 278° West 407 468 38,000  Level Cleveland Center
Fri 10:52:44 AM 41.2086 -82.0322 278° West 407 468 38,000  Level Cleveland Center
Fri 10:53:44 AM 41.2231 -82.1981 277° West 412 474 38,000  Level Cleveland Center
Fri 10:54:44 AM 41.2375 -82.3447 278° West 410 472 38,000  Level Cleveland Center
Fri 10:55:44 AM 41.2497 -82.4942 276° West 409 471 38,000  Level Cleveland Center
Fri 10:56:44 AM 41.2622 -82.6272 277° West 409 471 38,000  Level Cleveland Center
Fri 10:57:44 AM 41.2761 -82.7769 277° West 409 471 38,000  Level Cleveland Center
Fri 10:58:44 AM 41.2878 -82.9236 276° West 404 465 38,000  Level Cleveland Center
Fri 10:59:44 AM 41.3011 -83.0708 277° West 409 471 38,000  Level Cleveland Center
Fri 11:00:45 AM 41.3164 -83.2317 277° West 403 464 38,000  Level Cleveland Center
Fri 11:01:44 AM 41.3275 -83.3758 276° West 403 464 38,000  Level Cleveland Center
Fri 11:02:44 AM 41.3406 -83.5258 277° West 403 464 38,000  Level Cleveland Center
Fri 11:03:45 AM 41.3511 -83.6731 276° West 408 470 38,000  Level Cleveland Center
Fri 11:04:44 AM 41.3639 -83.8203 277° West 408 470 38,000  Level Cleveland Center
Fri 11:05:44 AM 41.3764 -83.9622 277° West 403 464 38,000 -400 Level Cleveland Center
Fri 11:06:44 AM 41.3867 -84.1067 275° West 403 464 37,200 -1,450 Descending Cleveland Center
Fri 11:07:44 AM 41.3956 -84.2233 276° West 403 464 35,100 -2,057 Descending Cleveland Center
Fri 11:09:39 AM 41.4200 -84.4925 277° West 376 433 31,200 -1,739 Descending Chicago Center
Fri 11:10:40 AM 41.4322 -84.6517 276° West 362 417 30,000 -585 Descending Chicago Center
Fri 11:11:42 AM 41.4425 -84.7886 276° West 372 428 30,000  Level Chicago Center
Fri 11:12:44 AM 41.4525 -84.9317 275° West 386 444 30,000 -49 Level Chicago Center
Fri 11:13:45 AM 41.4625 -85.0733 275° West 386 444 29,900 -1,073 Descending Chicago Center
Fri 11:14:47 AM 41.4717 -85.2133 275° West 379 436 27,800 -2,049 Descending Chicago Center
Fri 11:15:48 AM 41.4814 -85.3500 275° West 369 425 25,700 -2,000 Descending Chicago Center
Fri 11:16:50 AM 41.4894 -85.4828 275° West 357 411 23,700 -1,403 Descending Chicago Center
Fri 11:17:52 AM 41.4978 -85.6106 275° West 346 398 22,800 -1,268 Descending Chicago Center
Fri 11:18:53 AM 41.5014 -85.7328 272° West 332 382 21,100 -1,659 Descending Chicago Center
Fri 11:19:55 AM 41.5053 -85.8475 273° West 313 360 19,400 -1,756 Descending Chicago Center
Fri 11:20:56 AM 41.5089 -85.9611 272° West 307 353 17,500 -1,854 Descending Chicago Center
Fri 11:21:58 AM 41.5139 -86.0914 273° West 295 339 15,600 -1,742 Descending Chicago Center
Fri 11:23:00 AM 41.5169 -86.1978 272° West 287 330 13,900 -1,610 Descending Chicago Center
Fri 11:24:01 AM 41.5192 -86.3000 272° West 279 321 12,300 -1,415 Descending Chicago Center
Fri 11:25:03 AM 41.5233 -86.4006 273° West 273 314 11,000 -1,122 Descending Chicago Center
Fri 11:26:04 AM 41.5217 -86.4994 269° West 269 310 10,000 -488 Descending Chicago Center
Fri 11:27:06 AM 41.5200 -86.5989 269° West 268 308 10,000  Level Chicago Center
Fri 11:28:08 AM 41.5206 -86.7186 270° West 279 321 10,000  Level Chicago Center
Fri 11:29:09 AM 41.5192 -86.8217 269° West 279 321 10,000 -195 Level Chicago Center
Fri 11:30:11 AM 41.5186 -86.9206 270° West 268 308 9,600 -732 Descending Chicago Center
Fri 11:31:12 AM 41.5317 -87.0136 281° West 259 298 8,500 -1,024 Descending Chicago Center
Fri 11:32:14 AM 41.5539 -87.1083 287° West 266 306 7,500 -1,018 Descending Chicago Center
Fri 11:33:04 AM 41.5667 -87.2000 281° West 249 287 6,600 -1,086 Descending Chicago TRACON
Fri 11:34:10 AM 41.6000 -87.2833 298° West 241 277 5,400 -950 Descending Chicago TRACON
Fri 11:35:04 AM 41.6167 -87.3667 285° West 238 274 4,700 -609 Descending Chicago TRACON
Fri 11:35:19 AM 41.6169 -87.3828 271° West 239 275 4,700 -553 Level Chicago Center
Fri 11:36:20 AM 41.6369 -87.4656 288° West 237 273 4,000 -390 Descending Chicago Center
Fri 11:37:22 AM 41.6564 -87.5503 287° West 238 274 3,900 -290 Descending Chicago Center
Fri 11:38:24 AM 41.6872 -87.6156 302° West 224 258 3,400 -824 Descending Chicago Center
Fri 11:39:04 AM 41.7167 -87.6500 319° Northwest 187 215 2,500 -1,080 Descending Chicago TRACON
Fri 11:40:04 AM 41.7500 -87.7000 312° West 135 155 1,600 -800 Descending Chicago TRACON
Fri 11:41:04 AM 41.7667 -87.7333 304° West 129 148 900 -700 Descending Chicago TRACON

Login

Don't have an account? Register now (free) for customized features, flight alerts, and more!